Time;durP1;ratioP1;P1;durP2;ratioP2;P2;SDS_P1;SDS_P2;PMS_P1;PMS_P2;Temp;Humidity;BMP_temperature;BMP_pressure;BME280_temperature;BME280_humidity;BME280_pressure;Samples;Min_cycle;Max_cycle;Signal;HPM_P1;HPM_P2
2023/05/13 00:00:37;;;;;;;0.70;0.70;;;;;;;;;;4981021;28;20046;-81
2023/05/13 00:03:05;;;;;;;0.80;0.80;;;;;;;;;;4990788;28;20463;-82
2023/05/13 00:05:33;;;;;;;0.60;0.60;;;;;;;;;;4998914;28;20081;-80
2023/05/13 00:08:00;;;;;;;0.60;0.60;;;;;;;;;;4984937;28;20038;-81
2023/05/13 00:10:28;;;;;;;0.52;0.52;;;;;;;;;;4987852;28;20554;-81
2023/05/13 00:12:58;;;;;;;0.50;0.50;;;;;;;;;;4984531;28;20085;-81
2023/05/13 00:15:26;;;;;;;0.52;0.52;;;;;;;;;;4990992;28;20110;-81
2023/05/13 00:17:53;;;;;;;1.33;0.63;;;;;;;;;;4990377;28;20051;-81
2023/05/13 00:20:20;;;;;;;0.50;0.50;;;;;;;;;;4987199;28;20039;-81
2023/05/13 00:22:48;;;;;;;0.60;0.60;;;;;;;;;;4983134;28;20046;-81
2023/05/13 00:25:16;;;;;;;0.50;0.50;;;;;;;;;;4994253;28;20052;-81
2023/05/13 00:27:43;;;;;;;2.40;0.50;;;;;;;;;;4996112;28;20077;-81
2023/05/13 00:30:10;;;;;;;0.40;0.40;;;;;;;;;;4994237;28;20053;-81
2023/05/13 00:32:38;;;;;;;0.50;0.50;;;;;;;;;;4997732;28;20096;-81
2023/05/13 00:35:08;;;;;;;0.70;0.70;;;;;;;;;;4983075;28;20419;-80
2023/05/13 00:37:35;;;;;;;0.50;0.50;;;;;;;;;;4988148;28;20057;-81
2023/05/13 00:40:03;;;;;;;0.60;0.60;;;;;;;;;;4996667;28;20054;-82
2023/05/13 00:42:30;;;;;;;0.63;0.63;;;;;;;;;;4994449;28;20055;-81
2023/05/13 00:44:57;;;;;;;0.40;0.40;;;;;;;;;;5000976;28;20065;-81
2023/05/13 00:47:25;;;;;;;0.70;0.70;;;;;;;;;;5000128;28;20497;-81
2023/05/13 00:49:52;;;;;;;0.50;0.50;;;;;;;;;;4989488;28;20543;-81
2023/05/13 00:52:20;;;;;;;0.50;0.50;;;;;;;;;;5005625;28;20492;-80
2023/05/13 00:54:47;;;;;;;0.50;0.50;;;;;;;;;;5000480;28;20047;-81
2023/05/13 00:57:14;;;;;;;0.40;0.40;;;;;;;;;;4972730;28;20069;-81
2023/05/13 00:59:42;;;;;;;0.40;0.40;;;;;;;;;;5000556;28;20042;-81
2023/05/13 01:02:24;;;;;;;0.40;0.40;;;;;;;;;;4996230;28;20117;-81
2023/05/13 01:04:58;;;;;;;0.45;0.45;;;;;;;;;;4993549;28;20043;-81
2023/05/13 01:07:34;;;;;;;0.50;0.50;;;;;;;;;;4992294;28;20050;-82
2023/05/13 01:10:08;;;;;;;0.80;0.80;;;;;;;;;;4994978;28;20039;-81
2023/05/13 01:12:36;;;;;;;1.55;0.80;;;;;;;;;;4988656;28;20058;-80
2023/05/13 01:15:12;;;;;;;0.70;0.70;;;;;;;;;;4987606;28;20195;-81
2023/05/13 01:17:45;;;;;;;0.50;0.50;;;;;;;;;;4990779;28;20046;-81
2023/05/13 01:20:13;;;;;;;0.57;0.57;;;;;;;;;;4981180;28;20042;-81
2023/05/13 01:22:41;;;;;;;0.98;0.50;;;;;;;;;;4980276;28;20415;-80
2023/05/13 01:25:08;;;;;;;0.50;0.50;;;;;;;;;;4981761;28;20290;-80
2023/05/13 01:27:36;;;;;;;0.60;0.60;;;;;;;;;;4984547;28;20058;-80
2023/05/13 01:30:05;;;;;;;0.43;0.43;;;;;;;;;;4987779;28;20050;-81
2023/05/13 01:32:34;;;;;;;0.57;0.57;;;;;;;;;;5009015;28;20070;-81
2023/05/13 01:35:02;;;;;;;0.40;0.40;;;;;;;;;;5004249;28;20076;-81
2023/05/13 01:37:31;;;;;;;0.40;0.40;;;;;;;;;;4990887;28;20038;-81
2023/05/13 01:39:59;;;;;;;0.50;0.50;;;;;;;;;;4984179;28;20051;-81
2023/05/13 01:42:30;;;;;;;0.40;0.40;;;;;;;;;;4990763;28;20050;-81
2023/05/13 01:44:58;;;;;;;0.50;0.50;;;;;;;;;;4993459;28;20368;-81
2023/05/13 01:47:27;;;;;;;0.40;0.40;;;;;;;;;;4997221;28;20054;-81
2023/05/13 01:49:55;;;;;;;0.52;0.52;;;;;;;;;;4986773;28;20047;-81
2023/05/13 01:52:22;;;;;;;0.32;0.32;;;;;;;;;;4989098;28;20050;-81
2023/05/13 01:54:52;;;;;;;0.30;0.30;;;;;;;;;;4989336;28;20281;-81
2023/05/13 01:57:26;;;;;;;0.40;0.40;;;;;;;;;;4990360;28;20533;-81
2023/05/13 01:59:55;;;;;;;0.52;0.50;;;;;;;;;;4993014;28;20042;-81
2023/05/13 02:02:24;;;;;;;0.20;0.20;;;;;;;;;;4992972;28;20057;-81
2023/05/13 02:04:53;;;;;;;0.30;0.30;;;;;;;;;;4996777;28;20046;-81
2023/05/13 02:07:21;;;;;;;0.30;0.30;;;;;;;;;;4996503;28;20058;-81
2023/05/13 02:09:50;;;;;;;0.22;0.22;;;;;;;;;;4992023;28;20082;-82
2023/05/13 02:12:17;;;;;;;0.30;0.30;;;;;;;;;;4987582;28;20054;-83
2023/05/13 02:14:44;;;;;;;0.80;0.60;;;;;;;;;;5014740;28;20169;-80
2023/05/13 02:17:12;;;;;;;0.40;0.40;;;;;;;;;;4993576;28;20050;-81
2023/05/13 02:19:40;;;;;;;0.30;0.30;;;;;;;;;;4976989;28;20061;-81
2023/05/13 02:22:08;;;;;;;0.60;0.60;;;;;;;;;;4983643;28;20284;-81
2023/05/13 02:24:38;;;;;;;0.50;0.50;;;;;;;;;;5004828;28;20160;-81
2023/05/13 02:27:11;;;;;;;0.50;0.50;;;;;;;;;;4978122;28;20038;-81
2023/05/13 02:29:38;;;;;;;0.40;0.40;;;;;;;;;;4997030;28;20046;-81
2023/05/13 02:32:07;;;;;;;0.45;0.45;;;;;;;;;;4984113;28;20429;-81
2023/05/13 02:34:34;;;;;;;0.40;0.40;;;;;;;;;;4993083;28;20050;-81
2023/05/13 02:37:03;;;;;;;0.40;0.40;;;;;;;;;;4999140;28;20082;-81
2023/05/13 02:39:31;;;;;;;0.40;0.40;;;;;;;;;;4998199;28;20117;-80
2023/05/13 02:41:59;;;;;;;0.50;0.50;;;;;;;;;;5000137;28;20313;-80
2023/05/13 02:44:31;;;;;;;0.40;0.40;;;;;;;;;;4991784;28;20058;-81
2023/05/13 02:46:59;;;;;;;1.55;0.35;;;;;;;;;;4999473;28;20121;-81
2023/05/13 02:49:27;;;;;;;0.65;0.40;;;;;;;;;;4996606;28;20061;-82
2023/05/13 02:51:54;;;;;;;0.50;0.50;;;;;;;;;;4997647;28;20053;-81
2023/05/13 02:54:29;;;;;;;0.50;0.50;;;;;;;;;;4977427;28;20515;-82
2023/05/13 02:56:56;;;;;;;0.77;0.60;;;;;;;;;;5008809;28;20138;-81
2023/05/13 02:59:24;;;;;;;0.70;0.70;;;;;;;;;;4979056;28;20054;-80
2023/05/13 03:01:53;;;;;;;0.82;0.82;;;;;;;;;;4997423;28;20046;-81
2023/05/13 03:04:20;;;;;;;1.10;1.10;;;;;;;;;;4991783;28;20070;-81
2023/05/13 03:06:48;;;;;;;0.77;0.77;;;;;;;;;;4997162;28;20061;-81
2023/05/13 03:09:15;;;;;;;0.68;0.68;;;;;;;;;;4993552;28;20053;-81
2023/05/13 03:11:44;;;;;;;0.70;0.70;;;;;;;;;;4998003;28;20523;-82
2023/05/13 03:14:11;;;;;;;0.57;0.57;;;;;;;;;;4985716;28;20069;-81
2023/05/13 03:16:38;;;;;;;0.60;0.60;;;;;;;;;;4987128;28;20066;-82
2023/05/13 03:19:06;;;;;;;0.43;0.43;;;;;;;;;;4991632;28;20054;-82
2023/05/13 03:21:33;;;;;;;0.40;0.40;;;;;;;;;;4986573;28;20156;-81
2023/05/13 03:24:02;;;;;;;0.50;0.50;;;;;;;;;;4992294;28;20133;-81
2023/05/13 03:26:32;;;;;;;0.50;0.50;;;;;;;;;;5010145;23;20112;-88
2023/05/13 03:29:12;;;;;;;0.50;0.50;;;;;;;;;;5023863;28;20065;-85
2023/05/13 03:31:40;;;;;;;0.40;0.40;;;;;;;;;;5024420;28;20091;-85
2023/05/13 03:34:08;;;;;;;0.50;0.50;;;;;;;;;;5029838;28;20048;-85
2023/05/13 03:36:37;;;;;;;0.95;0.60;;;;;;;;;;5027014;28;21599;-85
2023/05/13 03:39:05;;;;;;;0.50;0.50;;;;;;;;;;5025406;28;20060;-85
2023/05/13 03:41:33;;;;;;;0.50;0.50;;;;;;;;;;5012017;28;20044;-85
2023/05/13 03:44:07;;;;;;;0.50;0.50;;;;;;;;;;5016438;28;20049;-86
2023/05/13 03:46:38;;;;;;;0.40;0.40;;;;;;;;;;5021243;28;20049;-85
2023/05/13 03:49:08;;;;;;;0.30;0.30;;;;;;;;;;5025092;28;20499;-85
2023/05/13 03:51:37;;;;;;;0.40;0.40;;;;;;;;;;5026088;28;20098;-85
2023/05/13 03:54:05;;;;;;;0.50;0.50;;;;;;;;;;5023860;28;20056;-86
2023/05/13 03:56:35;;;;;;;0.65;0.60;;;;;;;;;;5020073;28;20069;-85
2023/05/13 03:59:03;;;;;;;0.50;0.50;;;;;;;;;;5043709;28;20591;-85
2023/05/13 04:01:36;;;;;;;0.40;0.40;;;;;;;;;;5019612;28;21200;-84
2023/05/13 04:04:03;;;;;;;0.60;0.60;;;;;;;;;;5020178;28;20064;-86
2023/05/13 04:06:44;;;;;;;0.55;0.55;;;;;;;;;;5020116;28;20451;-85
2023/05/13 04:09:23;;;;;;;0.60;0.60;;;;;;;;;;5024406;28;20056;-85
2023/05/13 04:11:51;;;;;;;0.40;0.40;;;;;;;;;;5034254;28;20079;-84
2023/05/13 04:14:22;;;;;;;0.60;0.60;;;;;;;;;;5025628;28;20056;-85
2023/05/13 04:16:52;;;;;;;0.40;0.40;;;;;;;;;;5037836;28;20067;-85
2023/05/13 04:19:20;;;;;;;0.35;0.35;;;;;;;;;;5016393;28;20049;-85
2023/05/13 04:21:49;;;;;;;0.50;0.50;;;;;;;;;;5018707;28;20041;-85
2023/05/13 04:24:20;;;;;;;0.40;0.40;;;;;;;;;;5026354;28;20131;-85
2023/05/13 04:26:51;;;;;;;0.50;0.50;;;;;;;;;;5039250;28;20157;-85
2023/05/13 04:29:21;;;;;;;0.45;0.45;;;;;;;;;;5023692;28;20041;-85
2023/05/13 04:31:56;;;;;;;1.25;0.70;;;;;;;;;;5025653;28;20046;-84
2023/05/13 04:34:28;;;;;;;0.40;0.40;;;;;;;;;;5025504;28;20176;-85
2023/05/13 04:36:56;;;;;;;0.55;0.55;;;;;;;;;;5024149;28;20053;-84
2023/05/13 04:39:27;;;;;;;0.50;0.50;;;;;;;;;;5020045;28;20673;-85
2023/05/13 04:41:55;;;;;;;0.80;0.47;;;;;;;;;;5023611;28;20049;-84
2023/05/13 04:44:22;;;;;;;0.55;0.55;;;;;;;;;;5041104;28;20041;-84
2023/05/13 04:46:52;;;;;;;0.50;0.50;;;;;;;;;;5042428;28;20048;-85
2023/05/13 04:49:20;;;;;;;0.38;0.38;;;;;;;;;;5026406;28;20045;-85
2023/05/13 04:51:50;;;;;;;0.63;0.45;;;;;;;;;;5021664;28;20396;-85
2023/05/13 04:54:19;;;;;;;0.50;0.50;;;;;;;;;;5026326;28;20136;-85
2023/05/13 04:56:47;;;;;;;0.50;0.50;;;;;;;;;;5021097;28;20552;-85
2023/05/13 04:59:14;;;;;;;0.50;0.50;;;;;;;;;;5027051;28;20057;-85
2023/05/13 05:01:42;;;;;;;0.40;0.40;;;;;;;;;;5019474;28;20131;-85
2023/05/13 05:04:10;;;;;;;0.40;0.40;;;;;;;;;;5023218;28;20052;-85
2023/05/13 05:06:38;;;;;;;0.45;0.45;;;;;;;;;;5021245;28;20047;-83
2023/05/13 05:09:06;;;;;;;0.50;0.50;;;;;;;;;;5025258;28;20495;-84
2023/05/13 05:11:34;;;;;;;1.80;0.43;;;;;;;;;;5026161;28;20044;-85
2023/05/13 05:14:02;;;;;;;0.60;0.60;;;;;;;;;;5031116;28;20049;-84
2023/05/13 05:16:29;;;;;;;0.52;0.52;;;;;;;;;;5032507;28;20049;-86
2023/05/13 05:18:58;;;;;;;0.63;0.60;;;;;;;;;;5026148;28;20052;-86
2023/05/13 05:21:25;;;;;;;0.50;0.50;;;;;;;;;;5026845;28;21455;-84
2023/05/13 05:23:54;;;;;;;0.50;0.50;;;;;;;;;;5026629;28;20060;-84
2023/05/13 05:26:22;;;;;;;0.50;0.50;;;;;;;;;;5026643;28;20431;-85
2023/05/13 05:28:50;;;;;;;0.45;0.45;;;;;;;;;;5026601;28;20037;-85
2023/05/13 05:31:18;;;;;;;0.47;0.47;;;;;;;;;;5015510;28;20269;-86
2023/05/13 05:33:46;;;;;;;0.60;0.60;;;;;;;;;;5028155;28;20052;-84
2023/05/13 05:36:13;;;;;;;0.50;0.50;;;;;;;;;;5028594;28;20506;-85
2023/05/13 05:38:42;;;;;;;0.47;0.47;;;;;;;;;;5044565;28;20139;-85
2023/05/13 05:41:10;;;;;;;1.50;0.70;;;;;;;;;;5029096;28;20051;-85
2023/05/13 05:43:38;;;;;;;0.73;0.73;;;;;;;;;;5031778;28;20040;-85
2023/05/13 05:46:06;;;;;;;0.65;0.65;;;;;;;;;;5051438;28;20052;-85
2023/05/13 05:48:34;;;;;;;0.60;0.60;;;;;;;;;;5030158;28;20048;-85
2023/05/13 05:51:05;;;;;;;0.50;0.50;;;;;;;;;;5027605;28;20091;-84
2023/05/13 05:53:36;;;;;;;0.50;0.50;;;;;;;;;;5031289;28;20045;-85
2023/05/13 05:56:05;;;;;;;0.50;0.50;;;;;;;;;;5030020;28;20491;-85
2023/05/13 05:58:32;;;;;;;0.50;0.50;;;;;;;;;;5034777;28;20041;-85
2023/05/13 06:01:00;;;;;;;0.85;0.60;;;;;;;;;;5035444;28;20075;-85
2023/05/13 06:03:27;;;;;;;0.50;0.50;;;;;;;;;;5036422;28;20097;-83
2023/05/13 06:05:55;;;;;;;0.55;0.55;;;;;;;;;;5045943;28;20048;-84
2023/05/13 06:08:28;;;;;;;0.50;0.50;;;;;;;;;;5063807;28;20052;-85
2023/05/13 06:10:57;;;;;;;0.40;0.40;;;;;;;;;;5061392;28;20032;-83
2023/05/13 06:13:25;;;;;;;0.57;0.57;;;;;;;;;;5039421;28;20695;-85
2023/05/13 06:15:52;;;;;;;0.43;0.43;;;;;;;;;;5039780;28;20041;-85
2023/05/13 06:18:20;;;;;;;0.60;0.60;;;;;;;;;;5054388;28;20041;-84
2023/05/13 06:20:48;;;;;;;0.50;0.50;;;;;;;;;;5057479;28;20049;-83
2023/05/13 06:23:20;;;;;;;0.60;0.60;;;;;;;;;;5044591;28;20114;-84
2023/05/13 06:25:48;;;;;;;0.45;0.45;;;;;;;;;;5040164;28;20116;-84
2023/05/13 06:28:15;;;;;;;0.55;0.45;;;;;;;;;;5027214;28;20507;-85
2023/05/13 06:30:44;;;;;;;0.40;0.40;;;;;;;;;;5025212;28;20037;-84
2023/05/13 06:33:11;;;;;;;0.40;0.40;;;;;;;;;;5043947;28;20041;-85
2023/05/13 06:35:39;;;;;;;0.47;0.47;;;;;;;;;;5024513;28;20060;-85
2023/05/13 06:38:09;;;;;;;0.40;0.40;;;;;;;;;;5029789;28;20052;-85
2023/05/13 06:40:36;;;;;;;0.40;0.40;;;;;;;;;;5028868;28;20129;-85
2023/05/13 06:43:05;;;;;;;0.40;0.40;;;;;;;;;;5027246;28;20049;-86
2023/05/13 06:45:36;;;;;;;0.30;0.30;;;;;;;;;;5026407;28;20044;-84
2023/05/13 06:48:04;;;;;;;1.00;0.40;;;;;;;;;;5034170;28;20871;-83
2023/05/13 06:50:31;;;;;;;0.35;0.35;;;;;;;;;;5026300;28;20040;-85
2023/05/13 06:53:00;;;;;;;0.20;0.20;;;;;;;;;;5047489;28;20053;-84
2023/05/13 06:55:27;;;;;;;0.20;0.20;;;;;;;;;;5064160;28;20021;-84
2023/05/13 06:57:58;;;;;;;0.30;0.30;;;;;;;;;;5042897;28;20061;-83
2023/05/13 07:00:27;;;;;;;0.30;0.30;;;;;;;;;;5041538;28;20045;-85
2023/05/13 07:02:54;;;;;;;0.30;0.30;;;;;;;;;;5041027;28;20379;-85
2023/05/13 07:05:22;;;;;;;0.20;0.20;;;;;;;;;;5040797;28;20041;-86
2023/05/13 07:07:57;;;;;;;0.20;0.20;;;;;;;;;;5047093;28;20053;-85
2023/05/13 07:10:25;;;;;;;0.30;0.30;;;;;;;;;;5046198;28;20839;-84
2023/05/13 07:12:52;;;;;;;0.20;0.20;;;;;;;;;;5026735;28;20053;-86
2023/05/13 07:15:20;;;;;;;0.20;0.20;;;;;;;;;;5039277;28;20057;-85
2023/05/13 07:17:51;;;;;;;0.20;0.20;;;;;;;;;;5041155;28;20049;-83
2023/05/13 07:20:21;;;;;;;0.30;0.30;;;;;;;;;;5048554;28;20037;-86
2023/05/13 07:22:49;;;;;;;0.20;0.20;;;;;;;;;;5042976;28;20054;-85
2023/05/13 07:25:19;;;;;;;0.47;0.47;;;;;;;;;;5050202;28;20095;-85
2023/05/13 07:27:46;;;;;;;0.47;0.47;;;;;;;;;;5043821;28;20507;-84
2023/05/13 07:30:14;;;;;;;0.40;0.30;;;;;;;;;;5040945;28;20155;-85
2023/05/13 07:32:44;;;;;;;0.32;0.32;;;;;;;;;;5033486;28;20056;-86
2023/05/13 07:35:15;;;;;;;0.20;0.20;;;;;;;;;;5033995;28;20044;-85
2023/05/13 07:37:46;;;;;;;0.20;0.20;;;;;;;;;;5042232;28;20128;-85
2023/05/13 07:40:19;;;;;;;0.28;0.20;;;;;;;;;;5037973;28;20055;-84
2023/05/13 07:42:47;;;;;;;0.30;0.30;;;;;;;;;;5041503;28;20037;-84
2023/05/13 07:45:15;;;;;;;0.10;0.10;;;;;;;;;;5040756;28;20434;-85
2023/05/13 07:47:42;;;;;;;0.20;0.20;;;;;;;;;;5019321;28;20235;-84
2023/05/13 07:50:11;;;;;;;0.20;0.20;;;;;;;;;;5038659;28;20041;-85
2023/05/13 07:52:38;;;;;;;0.30;0.30;;;;;;;;;;5038976;28;20048;-85
2023/05/13 07:55:13;;;;;;;0.20;0.20;;;;;;;;;;5036839;28;20068;-85
2023/05/13 07:57:40;;;;;;;0.20;0.20;;;;;;;;;;5043318;28;20542;-84
2023/05/13 08:00:08;;;;;;;0.20;0.20;;;;;;;;;;5037697;28;20052;-87
2023/05/13 08:02:42;;;;;;;0.20;0.20;;;;;;;;;;5031917;28;20048;-85
2023/05/13 08:05:11;;;;;;;0.30;0.30;;;;;;;;;;5042451;28;20041;-84
2023/05/13 08:07:38;;;;;;;0.20;0.20;;;;;;;;;;5023186;28;20037;-86
2023/05/13 08:10:06;;;;;;;0.20;0.20;;;;;;;;;;5035817;28;20695;-85
2023/05/13 08:12:33;;;;;;;0.20;0.20;;;;;;;;;;5042109;28;20056;-85
2023/05/13 08:15:02;;;;;;;0.10;0.10;;;;;;;;;;5040108;28;20573;-85
2023/05/13 08:17:30;;;;;;;0.20;0.20;;;;;;;;;;5032550;28;20053;-85
2023/05/13 08:19:58;;;;;;;1.33;0.30;;;;;;;;;;5039322;28;20048;-83
2023/05/13 08:22:26;;;;;;;0.20;0.20;;;;;;;;;;5038721;28;20103;-85
2023/05/13 08:24:53;;;;;;;0.20;0.20;;;;;;;;;;5046123;28;20052;-85
2023/05/13 08:27:21;;;;;;;0.28;0.28;;;;;;;;;;5044935;28;20037;-85
2023/05/13 08:29:48;;;;;;;0.20;0.20;;;;;;;;;;5042366;28;20052;-85
2023/05/13 08:32:16;;;;;;;0.22;0.22;;;;;;;;;;5034951;28;20056;-84
2023/05/13 08:34:43;;;;;;;0.30;0.30;;;;;;;;;;5042249;28;20146;-85
2023/05/13 08:37:11;;;;;;;0.20;0.20;;;;;;;;;;5033828;28;20049;-86
2023/05/13 08:39:38;;;;;;;0.20;0.20;;;;;;;;;;5038286;28;20384;-84
2023/05/13 08:42:08;;;;;;;0.30;0.30;;;;;;;;;;5035554;28;20476;-84
2023/05/13 08:44:38;;;;;;;0.20;0.20;;;;;;;;;;5047373;28;20120;-83
2023/05/13 08:47:16;;;;;;;0.20;0.20;;;;;;;;;;5025870;28;20087;-84
2023/05/13 08:49:45;;;;;;;0.40;0.40;;;;;;;;;;5039101;28;20084;-83
2023/05/13 08:52:12;;;;;;;0.20;0.20;;;;;;;;;;5042600;28;20053;-84
2023/05/13 08:54:44;;;;;;;;;;;;;;;;;;5045490;28;20128;-83
2023/05/13 08:57:11;;;;;;;0.30;0.30;;;;;;;;;;5039162;28;20291;-85
2023/05/13 08:59:39;;;;;;;0.20;0.20;;;;;;;;;;5040351;28;20042;-84
2023/05/13 09:02:06;;;;;;;0.35;0.35;;;;;;;;;;5038257;28;21252;-86
2023/05/13 09:04:37;;;;;;;0.30;0.30;;;;;;;;;;5045336;28;20049;-84
2023/05/13 09:07:06;;;;;;;0.30;0.30;;;;;;;;;;5026559;28;20041;-84
2023/05/13 09:09:34;;;;;;;0.20;0.20;;;;;;;;;;5043136;28;20126;-84
2023/05/13 09:12:02;;;;;;;0.30;0.30;;;;;;;;;;5042938;28;20049;-86
2023/05/13 09:14:33;;;;;;;0.20;0.20;;;;;;;;;;5045654;28;20041;-84
2023/05/13 09:17:01;;;;;;;0.25;0.25;;;;;;;;;;5044761;28;20060;-84
2023/05/13 09:19:28;;;;;;;0.43;0.43;;;;;;;;;;5040981;28;20108;-85
2023/05/13 09:21:56;;;;;;;0.32;0.20;;;;;;;;;;5057169;28;20530;-84
2023/05/13 09:24:23;;;;;;;0.30;0.30;;;;;;;;;;5049469;28;20037;-84
2023/05/13 09:26:54;;;;;;;0.30;0.30;;;;;;;;;;5058153;28;20070;-84
2023/05/13 09:29:48;;;;;;;0.20;0.20;;;;;;;;;;5054356;28;20063;-85
2023/05/13 09:32:16;;;;;;;0.23;0.23;;;;;;;;;;5035057;28;20049;-85
2023/05/13 09:34:47;;;;;;;0.25;0.25;;;;;;;;;;5055083;28;20340;-85
2023/05/13 09:37:17;;;;;;;0.30;0.30;;;;;;;;;;5049581;28;20060;-84
2023/05/13 09:39:45;;;;;;;0.38;0.38;;;;;;;;;;5033317;28;20149;-84
2023/05/13 09:42:16;;;;;;;0.30;0.30;;;;;;;;;;5042294;28;20045;-85
2023/05/13 09:44:44;;;;;;;0.30;0.30;;;;;;;;;;5042251;28;20041;-85
2023/05/13 09:47:15;;;;;;;0.55;0.40;;;;;;;;;;5047631;28;20053;-85
2023/05/13 09:49:54;;;;;;;0.28;0.28;;;;;;;;;;5038015;28;20044;-86
2023/05/13 09:52:22;;;;;;;0.30;0.30;;;;;;;;;;5045234;28;20045;-85
2023/05/13 09:54:52;;;;;;;0.40;0.40;;;;;;;;;;5040371;28;20049;-85
2023/05/13 09:57:20;;;;;;;0.40;0.40;;;;;;;;;;5044844;28;20048;-85
2023/05/13 09:59:48;;;;;;;0.32;0.32;;;;;;;;;;5041363;28;20124;-84
2023/05/13 10:02:16;;;;;;;0.50;0.50;;;;;;;;;;5036699;28;20564;-85
2023/05/13 10:04:44;;;;;;;0.30;0.30;;;;;;;;;;5040011;28;20064;-85
2023/05/13 10:07:23;;;;;;;0.50;0.32;;;;;;;;;;5041966;28;20418;-85
2023/05/13 10:09:52;;;;;;;0.40;0.40;;;;;;;;;;5043496;28;20045;-85
2023/05/13 10:12:23;;;;;;;0.22;0.22;;;;;;;;;;5042906;28;20045;-84
2023/05/13 10:14:51;;;;;;;0.30;0.30;;;;;;;;;;5031825;28;20045;-87
2023/05/13 10:17:23;;;;;;;1.05;0.50;;;;;;;;;;5029125;28;20075;-86
2023/05/13 10:19:51;;;;;;;2.05;1.95;;;;;;;;;;5038801;28;20037;-85
2023/05/13 10:22:29;;;;;;;0.82;0.82;;;;;;;;;;5040382;28;20152;-86
2023/05/13 10:24:58;;;;;;;0.68;0.68;;;;;;;;;;5041680;28;20387;-85
2023/05/13 10:27:28;;;;;;;0.40;0.40;;;;;;;;;;5042052;28;20088;-86
2023/05/13 10:29:56;;;;;;;0.40;0.40;;;;;;;;;;5032236;28;20041;-86
2023/05/13 10:32:25;;;;;;;0.32;0.32;;;;;;;;;;5041710;28;20049;-86
2023/05/13 10:34:58;;;;;;;0.50;0.50;;;;;;;;;;5048634;28;20044;-84
2023/05/13 10:37:33;;;;;;;0.40;0.40;;;;;;;;;;5039315;28;20095;-85
2023/05/13 10:40:03;;;;;;;0.40;0.40;;;;;;;;;;5040977;28;20056;-85
2023/05/13 10:42:32;;;;;;;0.40;0.40;;;;;;;;;;5047169;28;20040;-84
2023/05/13 10:44:59;;;;;;;0.32;0.32;;;;;;;;;;5042370;28;20060;-83
2023/05/13 10:47:26;;;;;;;0.40;0.40;;;;;;;;;;5044038;28;20041;-85
2023/05/13 10:49:54;;;;;;;0.43;0.43;;;;;;;;;;5044289;28;20053;-84
2023/05/13 10:52:21;;;;;;;0.38;0.38;;;;;;;;;;5040292;28;20053;-85
2023/05/13 10:55:01;;;;;;;0.40;0.40;;;;;;;;;;5044577;28;20049;-85
2023/05/13 10:57:36;;;;;;;0.30;0.30;;;;;;;;;;5040857;28;20087;-85
2023/05/13 11:00:12;;;;;;;0.50;0.50;;;;;;;;;;5041880;28;20052;-86
2023/05/13 11:02:42;;;;;;;0.30;0.30;;;;;;;;;;5043371;28;20049;-85
2023/05/13 11:05:18;;;;;;;0.28;0.28;;;;;;;;;;5041635;28;20060;-85
2023/05/13 11:07:54;;;;;;;0.40;0.40;;;;;;;;;;5040313;28;20450;-86
2023/05/13 11:10:26;;;;;;;0.40;0.40;;;;;;;;;;5046148;28;20413;-85
2023/05/13 11:13:29;;;;;;;0.40;0.40;;;;;;;;;;5041744;28;20041;-85
2023/05/13 11:15:56;;;;;;;0.43;0.43;;;;;;;;;;4966618;28;20054;-86
2023/05/13 11:18:30;;;;;;;0.50;0.50;;;;;;;;;;5027952;28;20049;-85
2023/05/13 11:21:02;;;;;;;0.38;0.38;;;;;;;;;;5042165;28;20056;-84
2023/05/13 11:23:33;;;;;;;0.50;0.35;;;;;;;;;;5041861;28;20128;-85
2023/05/13 11:26:11;;;;;;;0.40;0.40;;;;;;;;;;5021858;28;22108;-84
2023/05/13 11:28:57;;;;;;;0.30;0.30;;;;;;;;;;5011247;28;20812;-84
2023/05/13 11:31:26;;;;;;;1.10;0.50;;;;;;;;;;5035497;28;20052;-86
2023/05/13 11:34:08;;;;;;;0.50;0.50;;;;;;;;;;5038996;28;20048;-84
2023/05/13 11:36:36;;;;;;;0.57;0.40;;;;;;;;;;5042366;28;20049;-85
2023/05/13 11:39:07;;;;;;;0.35;0.35;;;;;;;;;;5042417;28;20530;-86
2023/05/13 11:41:35;;;;;;;0.60;0.47;;;;;;;;;;5020695;28;20083;-85
2023/05/13 11:44:04;;;;;;;0.50;0.40;;;;;;;;;;5032242;28;20124;-85
2023/05/13 11:46:32;;;;;;;0.40;0.40;;;;;;;;;;5036038;28;20135;-84
2023/05/13 11:48:59;;;;;;;0.40;0.40;;;;;;;;;;5034152;28;20565;-85
2023/05/13 11:51:27;;;;;;;0.50;0.50;;;;;;;;;;5039614;28;20042;-85
2023/05/13 11:54:01;;;;;;;0.75;0.55;;;;;;;;;;5037106;28;20045;-81
2023/05/13 11:56:42;;;;;;;0.50;0.50;;;;;;;;;;5043636;28;20052;-80
2023/05/13 11:59:13;;;;;;;0.60;0.60;;;;;;;;;;5041027;28;20149;-81
2023/05/13 12:01:41;;;;;;;0.50;0.50;;;;;;;;;;5041526;28;20064;-84
2023/05/13 12:04:08;;;;;;;0.70;0.70;;;;;;;;;;5038118;28;20053;-85
2023/05/13 12:06:43;;;;;;;0.60;0.60;;;;;;;;;;5037330;28;20451;-84
2023/05/13 12:09:12;;;;;;;0.50;0.50;;;;;;;;;;5041363;28;20045;-83
2023/05/13 12:11:39;;;;;;;0.55;0.55;;;;;;;;;;5044378;28;20064;-84
2023/05/13 12:14:07;;;;;;;0.60;0.60;;;;;;;;;;5045610;28;20049;-84
2023/05/13 12:16:34;;;;;;;0.60;0.60;;;;;;;;;;5035432;28;20061;-83
2023/05/13 12:19:06;;;;;;;0.60;0.60;;;;;;;;;;5047056;28;20048;-85
2023/05/13 12:21:34;;;;;;;1.00;1.00;;;;;;;;;;5039756;28;20053;-85
2023/05/13 12:24:01;;;;;;;0.80;0.80;;;;;;;;;;5037177;28;20052;-85
2023/05/13 12:26:28;;;;;;;0.80;0.80;;;;;;;;;;5044920;28;20048;-85
2023/05/13 12:28:57;;;;;;;0.60;0.60;;;;;;;;;;5060868;28;20072;-83
2023/05/13 12:31:25;;;;;;;0.70;0.70;;;;;;;;;;5049782;28;20060;-83
2023/05/13 12:33:53;;;;;;;1.25;1.00;;;;;;;;;;5047881;28;20045;-84
2023/05/13 12:36:35;;;;;;;0.70;0.70;;;;;;;;;;5040592;28;20033;-83
2023/05/13 12:39:10;;;;;;;0.60;0.60;;;;;;;;;;5057383;28;20183;-84
2023/05/13 12:41:38;;;;;;;0.80;0.80;;;;;;;;;;5054123;28;20081;-84
2023/05/13 12:44:15;;;;;;;0.70;0.70;;;;;;;;;;5040488;28;20053;-84
2023/05/13 12:47:00;;;;;;;0.82;0.82;;;;;;;;;;5040341;28;20053;-83
2023/05/13 12:49:28;;;;;;;0.80;0.80;;;;;;;;;;5038989;28;20033;-84
2023/05/13 12:51:55;;;;;;;0.90;0.90;;;;;;;;;;5041819;28;20052;-82
2023/05/13 12:54:23;;;;;;;0.70;0.70;;;;;;;;;;5040188;28;20060;-83
2023/05/13 12:56:51;;;;;;;0.80;0.80;;;;;;;;;;5041348;28;20059;-82
2023/05/13 12:59:19;;;;;;;0.73;0.73;;;;;;;;;;5034760;28;20204;-82
2023/05/13 13:01:48;;;;;;;0.70;0.70;;;;;;;;;;5038402;28;20056;-82
2023/05/13 13:04:16;;;;;;;0.70;0.70;;;;;;;;;;5039686;28;20041;-84
2023/05/13 13:06:43;;;;;;;0.80;0.80;;;;;;;;;;5043976;28;20045;-84
2023/05/13 13:09:11;;;;;;;1.02;0.90;;;;;;;;;;5038979;28;20614;-85
2023/05/13 13:11:40;;;;;;;0.90;0.90;;;;;;;;;;5036330;28;20534;-86
2023/05/13 13:14:08;;;;;;;1.20;1.20;;;;;;;;;;5041642;28;20045;-85
2023/05/13 13:16:36;;;;;;;1.10;1.10;;;;;;;;;;5037056;28;20049;-83
2023/05/13 13:19:03;;;;;;;0.98;0.98;;;;;;;;;;5022186;28;20057;-85
2023/05/13 13:26:39;;;;;;;0.93;0.93;;;;;;;;;;5032743;28;20043;-90
2023/05/13 13:30:25;;;;;;;1.20;1.17;;;;;;;;;;5043200;28;20037;-89
2023/05/13 13:33:36;;;;;;;1.17;1.17;;;;;;;;;;5044604;28;20036;-89
2023/05/13 13:53:03;;;;;;;1.63;1.52;;;;;;;;;;5027032;28;20151;-90
2023/05/13 13:56:22;;;;;;;1.25;1.25;;;;;;;;;;5041064;28;20076;-90
2023/05/13 13:59:14;;;;;;;1.67;1.67;;;;;;;;;;5046767;28;20038;-84
2023/05/13 14:02:09;;;;;;;1.53;1.43;;;;;;;;;;5025831;28;20130;-90
2023/05/13 14:05:54;;;;;;;1.50;1.50;;;;;;;;;;4991138;28;20101;-93
2023/05/13 14:09:36;;;;;;;;;;;;;;;;;;;;;
2023/05/13 14:16:52;;;;;;;1.98;1.92;;;;;;;;;;4862800;29;20049;-90
2023/05/13 14:24:44;;;;;;;;;;;;;;;;;;;;;
2023/05/13 14:28:26;;;;;;;2.28;2.17;;;;;;;;;;4936504;28;20034;-88
2023/05/13 14:37:49;;;;;;;2.10;2.00;;;;;;;;;;4923486;28;20202;-91
2023/05/13 14:48:20;;;;;;;2.30;2.20;;;;;;;;;;5038538;28;20593;-87
2023/05/13 14:51:29;;;;;;;2.30;2.20;;;;;;;;;;5037798;28;20041;-88
2023/05/13 14:54:34;;;;;;;2.42;2.22;;;;;;;;;;5041988;28;20517;-87
2023/05/13 14:57:27;;;;;;;2.10;1.90;;;;;;;;;;5048407;28;20498;-91
2023/05/13 15:00:14;;;;;;;2.30;2.20;;;;;;;;;;5041628;28;20083;-92
2023/05/13 15:03:16;;;;;;;2.00;1.90;;;;;;;;;;5032882;28;20049;-88
2023/05/13 15:06:15;;;;;;;2.15;1.95;;;;;;;;;;5047098;28;20056;-88
2023/05/13 15:09:46;;;;;;;2.33;2.13;;;;;;;;;;4954201;28;20027;-91
2023/05/13 15:12:22;;;;;;;3.13;2.83;;;;;;;;;;5027408;28;20063;-88
2023/05/13 15:14:56;;;;;;;2.40;2.28;;;;;;;;;;5047290;28;20048;-90
2023/05/13 15:20:37;;;;;;;2.38;2.28;;;;;;;;;;5004882;28;20046;-76
2023/05/13 15:23:04;;;;;;;3.10;2.80;;;;;;;;;;5006788;28;20113;-76
2023/05/13 15:25:33;;;;;;;2.60;2.50;;;;;;;;;;5005084;28;20069;-77
2023/05/13 15:28:00;;;;;;;2.35;2.10;;;;;;;;;;5020469;28;20565;-77
2023/05/13 15:30:28;;;;;;;2.28;2.17;;;;;;;;;;5002794;28;20235;-76
2023/05/13 15:32:56;;;;;;;3.70;3.38;;;;;;;;;;5020687;28;20056;-77
2023/05/13 15:35:24;;;;;;;2.80;2.60;;;;;;;;;;5017929;28;20045;-75
2023/05/13 15:37:51;;;;;;;2.80;2.60;;;;;;;;;;5016292;28;20049;-76
2023/05/13 15:40:18;;;;;;;2.40;2.30;;;;;;;;;;5021586;28;20061;-77
2023/05/13 15:42:47;;;;;;;2.83;2.53;;;;;;;;;;5022434;28;20138;-77
2023/05/13 15:45:14;;;;;;;2.53;2.40;;;;;;;;;;5031649;23;20052;-72
2023/05/13 15:47:41;;;;;;;3.28;2.97;;;;;;;;;;5011896;28;20046;-73
2023/05/13 15:50:10;;;;;;;2.63;2.50;;;;;;;;;;5010900;28;20045;-73
2023/05/13 15:52:38;;;;;;;3.38;3.08;;;;;;;;;;5021438;28;20041;-73
2023/05/13 15:55:08;;;;;;;2.92;2.72;;;;;;;;;;5006949;28;20050;-73
2023/05/13 15:57:35;;;;;;;3.55;3.35;;;;;;;;;;5018946;28;20049;-73
2023/05/13 16:00:03;;;;;;;2.67;2.50;;;;;;;;;;5020970;28;20144;-73